sensor_id;sensor_type;location;lat;lon;timestamp;P1;durP1;ratioP1;P2;durP2;ratioP2
45534;SDS011;35892;48.798;9.698;2022-11-21T00:03:44;1.00;;;0.50;;
45534;SDS011;35892;48.798;9.698;2022-11-21T00:06:11;0.50;;;0.30;;
45534;SDS011;35892;48.798;9.698;2022-11-21T00:08:38;0.75;;;0.50;;
45534;SDS011;35892;48.798;9.698;2022-11-21T00:11:05;1.00;;;0.40;;
45534;SDS011;35892;48.798;9.698;2022-11-21T00:13:32;0.65;;;0.28;;
45534;SDS011;35892;48.798;9.698;2022-11-21T00:16:11;0.43;;;0.38;;
45534;SDS011;35892;48.798;9.698;2022-11-21T00:18:40;0.45;;;0.20;;
45534;SDS011;35892;48.798;9.698;2022-11-21T00:21:09;0.75;;;0.30;;
45534;SDS011;35892;48.798;9.698;2022-11-21T00:23:41;1.80;;;0.40;;
45534;SDS011;35892;48.798;9.698;2022-11-21T00:26:12;0.75;;;0.30;;
45534;SDS011;35892;48.798;9.698;2022-11-21T00:28:40;0.50;;;0.30;;
45534;SDS011;35892;48.798;9.698;2022-11-21T00:31:07;1.40;;;0.40;;
45534;SDS011;35892;48.798;9.698;2022-11-21T00:33:37;0.55;;;0.20;;
45534;SDS011;35892;48.798;9.698;2022-11-21T00:36:05;0.70;;;0.20;;
45534;SDS011;35892;48.798;9.698;2022-11-21T00:38:34;0.75;;;0.30;;
45534;SDS011;35892;48.798;9.698;2022-11-21T00:41:05;1.05;;;0.30;;
45534;SDS011;35892;48.798;9.698;2022-11-21T00:43:34;0.68;;;0.30;;
45534;SDS011;35892;48.798;9.698;2022-11-21T00:46:03;0.65;;;0.30;;
45534;SDS011;35892;48.798;9.698;2022-11-21T00:48:30;0.43;;;0.30;;
45534;SDS011;35892;48.798;9.698;2022-11-21T00:50:59;0.52;;;0.22;;
45534;SDS011;35892;48.798;9.698;2022-11-21T00:53:27;0.77;;;0.20;;
45534;SDS011;35892;48.798;9.698;2022-11-21T00:55:56;5.35;;;0.57;;
45534;SDS011;35892;48.798;9.698;2022-11-21T00:58:23;1.10;;;0.40;;
45534;SDS011;35892;48.798;9.698;2022-11-21T01:00:50;0.98;;;0.30;;
45534;SDS011;35892;48.798;9.698;2022-11-21T01:03:17;1.05;;;0.20;;
45534;SDS011;35892;48.798;9.698;2022-11-21T01:05:43;1.17;;;0.30;;
45534;SDS011;35892;48.798;9.698;2022-11-21T01:08:15;0.50;;;0.20;;
45534;SDS011;35892;48.798;9.698;2022-11-21T01:10:42;0.38;;;0.20;;
45534;SDS011;35892;48.798;9.698;2022-11-21T01:13:11;1.10;;;0.30;;
45534;SDS011;35892;48.798;9.698;2022-11-21T01:15:39;1.02;;;0.22;;
45534;SDS011;35892;48.798;9.698;2022-11-21T01:18:06;0.80;;;0.30;;
45534;SDS011;35892;48.798;9.698;2022-11-21T01:20:39;0.93;;;0.40;;
45534;SDS011;35892;48.798;9.698;2022-11-21T01:23:06;0.57;;;0.40;;
45534;SDS011;35892;48.798;9.698;2022-11-21T01:25:35;1.38;;;0.20;;
45534;SDS011;35892;48.798;9.698;2022-11-21T01:28:02;3.08;;;0.40;;
45534;SDS011;35892;48.798;9.698;2022-11-21T01:30:29;0.30;;;0.20;;
45534;SDS011;35892;48.798;9.698;2022-11-21T01:32:55;1.08;;;0.43;;
45534;SDS011;35892;48.798;9.698;2022-11-21T01:35:22;0.55;;;0.40;;
45534;SDS011;35892;48.798;9.698;2022-11-21T01:37:51;0.70;;;0.30;;
45534;SDS011;35892;48.798;9.698;2022-11-21T01:40:18;1.33;;;0.40;;
45534;SDS011;35892;48.798;9.698;2022-11-21T01:48:23;0.98;;;0.38;;
45534;SDS011;35892;48.798;9.698;2022-11-21T01:51:00;2.30;;;0.40;;
45534;SDS011;35892;48.798;9.698;2022-11-21T01:53:33;3.72;;;0.60;;
45534;SDS011;35892;48.798;9.698;2022-11-21T01:56:03;1.75;;;0.50;;
45534;SDS011;35892;48.798;9.698;2022-11-21T01:58:31;1.10;;;0.43;;
45534;SDS011;35892;48.798;9.698;2022-11-21T02:01:00;1.98;;;0.60;;
45534;SDS011;35892;48.798;9.698;2022-11-21T02:03:29;2.13;;;0.70;;
45534;SDS011;35892;48.798;9.698;2022-11-21T02:06:01;1.48;;;0.55;;
45534;SDS011;35892;48.798;9.698;2022-11-21T02:08:28;2.28;;;0.47;;
45534;SDS011;35892;48.798;9.698;2022-11-21T02:10:58;0.65;;;0.47;;
45534;SDS011;35892;48.798;9.698;2022-11-21T02:13:43;0.90;;;0.50;;
45534;SDS011;35892;48.798;9.698;2022-11-21T02:16:10;0.82;;;0.40;;
45534;SDS011;35892;48.798;9.698;2022-11-21T02:18:37;1.77;;;0.47;;
45534;SDS011;35892;48.798;9.698;2022-11-21T02:21:07;1.55;;;0.60;;
45534;SDS011;35892;48.798;9.698;2022-11-21T02:23:57;1.10;;;0.50;;
45534;SDS011;35892;48.798;9.698;2022-11-21T02:26:29;2.47;;;0.68;;
45534;SDS011;35892;48.798;9.698;2022-11-21T02:29:01;2.38;;;0.50;;
45534;SDS011;35892;48.798;9.698;2022-11-21T02:31:32;1.75;;;0.50;;
45534;SDS011;35892;48.798;9.698;2022-11-21T02:33:59;4.70;;;0.70;;
45534;SDS011;35892;48.798;9.698;2022-11-21T02:36:49;4.68;;;0.63;;
45534;SDS011;35892;48.798;9.698;2022-11-21T02:45:20;1.90;;;0.75;;
45534;SDS011;35892;48.798;9.698;2022-11-21T02:47:26;0.82;;;0.32;;
45534;SDS011;35892;48.798;9.698;2022-11-21T02:49:55;1.30;;;0.50;;
45534;SDS011;35892;48.798;9.698;2022-11-21T02:52:27;0.90;;;0.35;;
45534;SDS011;35892;48.798;9.698;2022-11-21T02:54:53;1.55;;;0.40;;
45534;SDS011;35892;48.798;9.698;2022-11-21T02:57:22;3.03;;;0.50;;
45534;SDS011;35892;48.798;9.698;2022-11-21T02:59:49;2.45;;;0.73;;
45534;SDS011;35892;48.798;9.698;2022-11-21T03:02:16;3.92;;;0.73;;
45534;SDS011;35892;48.798;9.698;2022-11-21T03:04:45;3.33;;;0.70;;
45534;SDS011;35892;48.798;9.698;2022-11-21T03:07:11;1.48;;;0.40;;
45534;SDS011;35892;48.798;9.698;2022-11-21T03:09:38;1.20;;;0.50;;
45534;SDS011;35892;48.798;9.698;2022-11-21T03:12:08;2.40;;;0.50;;
45534;SDS011;35892;48.798;9.698;2022-11-21T03:14:35;5.50;;;0.88;;
45534;SDS011;35892;48.798;9.698;2022-11-21T03:17:03;2.80;;;1.00;;
45534;SDS011;35892;48.798;9.698;2022-11-21T03:19:29;2.10;;;0.60;;
45534;SDS011;35892;48.798;9.698;2022-11-21T03:22:01;2.15;;;0.60;;
45534;SDS011;35892;48.798;9.698;2022-11-21T03:24:28;5.68;;;1.02;;
45534;SDS011;35892;48.798;9.698;2022-11-21T03:26:55;2.10;;;0.60;;
45534;SDS011;35892;48.798;9.698;2022-11-21T03:29:24;1.42;;;0.60;;
45534;SDS011;35892;48.798;9.698;2022-11-21T03:31:51;2.15;;;0.80;;
45534;SDS011;35892;48.798;9.698;2022-11-21T03:34:17;2.53;;;0.63;;
45534;SDS011;35892;48.798;9.698;2022-11-21T03:36:44;2.67;;;0.82;;
45534;SDS011;35892;48.798;9.698;2022-11-21T03:39:13;3.28;;;0.85;;
45534;SDS011;35892;48.798;9.698;2022-11-21T03:41:42;1.83;;;0.60;;
45534;SDS011;35892;48.798;9.698;2022-11-21T03:44:09;3.70;;;0.60;;
45534;SDS011;35892;48.798;9.698;2022-11-21T03:46:38;4.65;;;1.35;;
45534;SDS011;35892;48.798;9.698;2022-11-21T03:49:06;3.60;;;0.75;;
45534;SDS011;35892;48.798;9.698;2022-11-21T03:51:38;8.50;;;1.15;;
45534;SDS011;35892;48.798;9.698;2022-11-21T03:54:05;1.77;;;0.52;;
45534;SDS011;35892;48.798;9.698;2022-11-21T03:56:32;2.42;;;0.70;;
45534;SDS011;35892;48.798;9.698;2022-11-21T03:59:02;2.67;;;0.60;;
45534;SDS011;35892;48.798;9.698;2022-11-21T04:01:28;1.90;;;0.60;;
45534;SDS011;35892;48.798;9.698;2022-11-21T04:04:01;3.38;;;0.57;;
45534;SDS011;35892;48.798;9.698;2022-11-21T04:06:30;1.55;;;0.45;;
45534;SDS011;35892;48.798;9.698;2022-11-21T04:08:57;2.10;;;0.75;;
45534;SDS011;35892;48.798;9.698;2022-11-21T04:11:24;1.83;;;0.60;;
45534;SDS011;35892;48.798;9.698;2022-11-21T04:13:56;3.38;;;0.70;;
45534;SDS011;35892;48.798;9.698;2022-11-21T04:16:27;5.38;;;0.65;;
45534;SDS011;35892;48.798;9.698;2022-11-21T04:18:54;1.85;;;0.70;;
45534;SDS011;35892;48.798;9.698;2022-11-21T04:21:23;2.35;;;0.60;;
45534;SDS011;35892;48.798;9.698;2022-11-21T04:23:50;1.33;;;0.60;;
45534;SDS011;35892;48.798;9.698;2022-11-21T04:26:17;1.33;;;0.60;;
45534;SDS011;35892;48.798;9.698;2022-11-21T04:28:43;3.25;;;0.90;;
45534;SDS011;35892;48.798;9.698;2022-11-21T04:31:12;3.50;;;1.27;;
45534;SDS011;35892;48.798;9.698;2022-11-21T04:33:39;0.65;;;0.40;;
45534;SDS011;35892;48.798;9.698;2022-11-21T04:36:06;1.50;;;0.60;;
45534;SDS011;35892;48.798;9.698;2022-11-21T04:38:36;2.28;;;0.52;;
45534;SDS011;35892;48.798;9.698;2022-11-21T04:41:04;2.15;;;0.80;;
45534;SDS011;35892;48.798;9.698;2022-11-21T04:43:31;1.27;;;0.57;;
45534;SDS011;35892;48.798;9.698;2022-11-21T04:46:00;1.65;;;0.57;;
45534;SDS011;35892;48.798;9.698;2022-11-21T04:48:27;2.25;;;0.82;;
45534;SDS011;35892;48.798;9.698;2022-11-21T04:50:56;2.25;;;0.63;;
45534;SDS011;35892;48.798;9.698;2022-11-21T04:53:26;1.92;;;0.73;;
45534;SDS011;35892;48.798;9.698;2022-11-21T04:55:55;4.72;;;0.90;;
45534;SDS011;35892;48.798;9.698;2022-11-21T04:58:25;3.13;;;0.60;;
45534;SDS011;35892;48.798;9.698;2022-11-21T05:00:52;1.70;;;0.50;;
45534;SDS011;35892;48.798;9.698;2022-11-21T05:03:21;1.88;;;0.88;;
45534;SDS011;35892;48.798;9.698;2022-11-21T05:05:47;3.55;;;1.45;;
45534;SDS011;35892;48.798;9.698;2022-11-21T05:08:14;1.85;;;1.00;;
45534;SDS011;35892;48.798;9.698;2022-11-21T05:10:41;2.47;;;1.10;;
45534;SDS011;35892;48.798;9.698;2022-11-21T05:13:27;2.28;;;1.00;;
45534;SDS011;35892;48.798;9.698;2022-11-21T05:15:56;2.38;;;1.08;;
45534;SDS011;35892;48.798;9.698;2022-11-21T05:18:23;3.22;;;1.42;;
45534;SDS011;35892;48.798;9.698;2022-11-21T05:20:50;3.35;;;1.40;;
45534;SDS011;35892;48.798;9.698;2022-11-21T05:23:17;4.22;;;1.75;;
45534;SDS011;35892;48.798;9.698;2022-11-21T05:25:46;5.00;;;2.13;;
45534;SDS011;35892;48.798;9.698;2022-11-21T05:28:17;4.40;;;1.20;;
45534;SDS011;35892;48.798;9.698;2022-11-21T05:30:44;3.75;;;1.40;;
45534;SDS011;35892;48.798;9.698;2022-11-21T05:33:11;7.65;;;3.03;;
45534;SDS011;35892;48.798;9.698;2022-11-21T05:35:38;2.60;;;0.80;;
45534;SDS011;35892;48.798;9.698;2022-11-21T05:38:08;1.85;;;0.47;;
45534;SDS011;35892;48.798;9.698;2022-11-21T05:40:35;2.53;;;1.02;;
45534;SDS011;35892;48.798;9.698;2022-11-21T05:43:02;0.93;;;0.60;;
45534;SDS011;35892;48.798;9.698;2022-11-21T05:45:50;3.95;;;1.00;;
45534;SDS011;35892;48.798;9.698;2022-11-21T05:48:17;1.98;;;0.60;;
45534;SDS011;35892;48.798;9.698;2022-11-21T05:50:46;1.13;;;0.50;;
45534;SDS011;35892;48.798;9.698;2022-11-21T05:53:14;1.48;;;0.65;;
45534;SDS011;35892;48.798;9.698;2022-11-21T05:55:42;3.28;;;0.70;;
45534;SDS011;35892;48.798;9.698;2022-11-21T05:58:09;1.40;;;0.45;;
45534;SDS011;35892;48.798;9.698;2022-11-21T06:00:36;1.55;;;0.80;;
45534;SDS011;35892;48.798;9.698;2022-11-21T06:03:08;1.13;;;0.60;;
45534;SDS011;35892;48.798;9.698;2022-11-21T06:08:32;2.35;;;0.50;;
45534;SDS011;35892;48.798;9.698;2022-11-21T06:11:04;2.05;;;0.60;;
45534;SDS011;35892;48.798;9.698;2022-11-21T06:13:32;2.03;;;0.75;;
45534;SDS011;35892;48.798;9.698;2022-11-21T06:18:30;2.05;;;0.73;;
45534;SDS011;35892;48.798;9.698;2022-11-21T06:23:30;1.65;;;0.50;;
45534;SDS011;35892;48.798;9.698;2022-11-21T06:25:58;1.10;;;0.50;;
45534;SDS011;35892;48.798;9.698;2022-11-21T06:28:32;1.02;;;0.60;;
45534;SDS011;35892;48.798;9.698;2022-11-21T06:31:07;2.03;;;0.70;;
45534;SDS011;35892;48.798;9.698;2022-11-21T06:33:35;1.77;;;0.40;;
45534;SDS011;35892;48.798;9.698;2022-11-21T06:36:10;1.55;;;0.57;;
45534;SDS011;35892;48.798;9.698;2022-11-21T06:38:43;1.45;;;0.57;;
45534;SDS011;35892;48.798;9.698;2022-11-21T06:41:15;2.17;;;0.60;;
45534;SDS011;35892;48.798;9.698;2022-11-21T06:46:13;1.45;;;0.90;;
45534;SDS011;35892;48.798;9.698;2022-11-21T06:48:40;1.50;;;0.50;;
45534;SDS011;35892;48.798;9.698;2022-11-21T06:51:17;1.27;;;0.43;;
45534;SDS011;35892;48.798;9.698;2022-11-21T06:53:51;1.63;;;0.30;;
45534;SDS011;35892;48.798;9.698;2022-11-21T06:56:23;2.33;;;0.57;;
45534;SDS011;35892;48.798;9.698;2022-11-21T06:58:54;1.77;;;0.52;;
45534;SDS011;35892;48.798;9.698;2022-11-21T07:01:23;3.13;;;0.60;;
45534;SDS011;35892;48.798;9.698;2022-11-21T07:03:51;1.92;;;1.05;;
45534;SDS011;35892;48.798;9.698;2022-11-21T07:06:18;1.25;;;0.70;;
45534;SDS011;35892;48.798;9.698;2022-11-21T07:08:45;1.30;;;0.40;;
45534;SDS011;35892;48.798;9.698;2022-11-21T07:11:25;1.60;;;0.40;;
45534;SDS011;35892;48.798;9.698;2022-11-21T07:13:52;1.90;;;1.00;;
45534;SDS011;35892;48.798;9.698;2022-11-21T07:16:18;3.33;;;0.88;;
45534;SDS011;35892;48.798;9.698;2022-11-21T07:18:45;3.92;;;0.90;;
45534;SDS011;35892;48.798;9.698;2022-11-21T07:21:12;2.88;;;1.50;;
45534;SDS011;35892;48.798;9.698;2022-11-21T07:23:39;1.60;;;1.20;;
45534;SDS011;35892;48.798;9.698;2022-11-21T07:26:06;4.00;;;2.85;;
45534;SDS011;35892;48.798;9.698;2022-11-21T07:28:35;5.50;;;2.92;;
45534;SDS011;35892;48.798;9.698;2022-11-21T07:31:02;3.97;;;2.33;;
45534;SDS011;35892;48.798;9.698;2022-11-21T07:33:36;3.10;;;1.60;;
45534;SDS011;35892;48.798;9.698;2022-11-21T07:36:03;2.15;;;1.20;;
45534;SDS011;35892;48.798;9.698;2022-11-21T07:38:30;1.38;;;0.60;;
45534;SDS011;35892;48.798;9.698;2022-11-21T07:40:57;1.90;;;0.70;;
45534;SDS011;35892;48.798;9.698;2022-11-21T07:43:24;0.95;;;0.40;;
45534;SDS011;35892;48.798;9.698;2022-11-21T07:45:50;0.60;;;0.38;;
45534;SDS011;35892;48.798;9.698;2022-11-21T07:48:17;2.08;;;0.55;;
45534;SDS011;35892;48.798;9.698;2022-11-21T07:50:46;2.50;;;0.75;;
45534;SDS011;35892;48.798;9.698;2022-11-21T07:53:13;1.13;;;0.60;;
45534;SDS011;35892;48.798;9.698;2022-11-21T07:55:42;0.93;;;0.60;;
45534;SDS011;35892;48.798;9.698;2022-11-21T07:58:10;3.40;;;0.90;;
45534;SDS011;35892;48.798;9.698;2022-11-21T08:00:39;2.70;;;0.70;;
45534;SDS011;35892;48.798;9.698;2022-11-21T08:03:10;7.67;;;0.57;;
45534;SDS011;35892;48.798;9.698;2022-11-21T08:05:43;0.85;;;0.50;;
45534;SDS011;35892;48.798;9.698;2022-11-21T08:08:10;1.85;;;0.60;;
45534;SDS011;35892;48.798;9.698;2022-11-21T08:10:38;3.47;;;1.10;;
45534;SDS011;35892;48.798;9.698;2022-11-21T08:13:09;2.10;;;1.02;;
45534;SDS011;35892;48.798;9.698;2022-11-21T08:15:39;1.85;;;1.10;;
45534;SDS011;35892;48.798;9.698;2022-11-21T08:18:10;2.22;;;1.20;;
45534;SDS011;35892;48.798;9.698;2022-11-21T08:20:38;3.97;;;1.60;;
45534;SDS011;35892;48.798;9.698;2022-11-21T08:23:06;3.45;;;1.48;;
45534;SDS011;35892;48.798;9.698;2022-11-21T08:25:35;2.08;;;0.90;;
45534;SDS011;35892;48.798;9.698;2022-11-21T08:28:03;2.50;;;0.77;;
45534;SDS011;35892;48.798;9.698;2022-11-21T08:30:31;2.95;;;1.00;;
45534;SDS011;35892;48.798;9.698;2022-11-21T08:32:59;2.97;;;1.42;;
45534;SDS011;35892;48.798;9.698;2022-11-21T08:35:26;2.42;;;1.10;;
45534;SDS011;35892;48.798;9.698;2022-11-21T08:37:57;3.55;;;2.10;;
45534;SDS011;35892;48.798;9.698;2022-11-21T08:40:27;4.75;;;2.30;;
45534;SDS011;35892;48.798;9.698;2022-11-21T08:42:58;3.83;;;1.13;;
45534;SDS011;35892;48.798;9.698;2022-11-21T08:45:35;1.55;;;0.82;;
45534;SDS011;35892;48.798;9.698;2022-11-21T08:48:07;4.28;;;1.40;;
45534;SDS011;35892;48.798;9.698;2022-11-21T08:50:36;1.48;;;0.90;;
45534;SDS011;35892;48.798;9.698;2022-11-21T08:53:03;3.38;;;0.93;;
45534;SDS011;35892;48.798;9.698;2022-11-21T08:55:32;1.70;;;0.80;;
45534;SDS011;35892;48.798;9.698;2022-11-21T08:57:59;3.92;;;0.90;;
45534;SDS011;35892;48.798;9.698;2022-11-21T09:00:28;3.20;;;0.90;;
45534;SDS011;35892;48.798;9.698;2022-11-21T09:02:54;4.25;;;1.10;;
45534;SDS011;35892;48.798;9.698;2022-11-21T09:05:21;3.03;;;0.70;;
45534;SDS011;35892;48.798;9.698;2022-11-21T09:07:54;3.75;;;0.82;;
45534;SDS011;35892;48.798;9.698;2022-11-21T09:10:23;4.07;;;0.80;;
45534;SDS011;35892;48.798;9.698;2022-11-21T09:12:50;3.33;;;0.90;;
45534;SDS011;35892;48.798;9.698;2022-11-21T09:15:20;1.80;;;0.70;;
45534;SDS011;35892;48.798;9.698;2022-11-21T09:18:06;5.00;;;0.70;;
45534;SDS011;35892;48.798;9.698;2022-11-21T09:20:37;2.03;;;0.90;;
45534;SDS011;35892;48.798;9.698;2022-11-21T09:23:09;2.40;;;0.90;;
45534;SDS011;35892;48.798;9.698;2022-11-21T09:25:37;2.35;;;0.75;;
45534;SDS011;35892;48.798;9.698;2022-11-21T09:28:06;3.65;;;1.15;;
45534;SDS011;35892;48.798;9.698;2022-11-21T09:30:34;1.77;;;0.63;;
45534;SDS011;35892;48.798;9.698;2022-11-21T09:33:04;3.30;;;0.82;;
45534;SDS011;35892;48.798;9.698;2022-11-21T09:35:33;3.60;;;0.75;;
45534;SDS011;35892;48.798;9.698;2022-11-21T09:37:59;4.30;;;1.20;;
45534;SDS011;35892;48.798;9.698;2022-11-21T09:40:29;2.13;;;0.80;;
45534;SDS011;35892;48.798;9.698;2022-11-21T09:51:17;3.08;;;0.88;;
45534;SDS011;35892;48.798;9.698;2022-11-21T09:56:25;2.90;;;0.80;;
45534;SDS011;35892;48.798;9.698;2022-11-21T10:01:44;2.08;;;0.73;;
45534;SDS011;35892;48.798;9.698;2022-11-21T10:04:12;5.07;;;1.00;;
45534;SDS011;35892;48.798;9.698;2022-11-21T10:06:41;4.15;;;0.90;;
45534;SDS011;35892;48.798;9.698;2022-11-21T10:09:44;3.15;;;0.90;;
45534;SDS011;35892;48.798;9.698;2022-11-21T10:20:31;2.63;;;0.73;;
45534;SDS011;35892;48.798;9.698;2022-11-21T10:23:24;2.22;;;0.82;;
45534;SDS011;35892;48.798;9.698;2022-11-21T10:26:08;2.80;;;0.70;;
45534;SDS011;35892;48.798;9.698;2022-11-21T10:31:22;2.38;;;0.85;;
45534;SDS011;35892;48.798;9.698;2022-11-21T10:33:49;2.30;;;0.73;;
45534;SDS011;35892;48.798;9.698;2022-11-21T10:36:40;6.10;;;0.98;;
45534;SDS011;35892;48.798;9.698;2022-11-21T10:39:13;2.25;;;0.60;;
45534;SDS011;35892;48.798;9.698;2022-11-21T10:41:57;4.55;;;1.20;;
45534;SDS011;35892;48.798;9.698;2022-11-21T10:44:29;3.70;;;1.15;;
45534;SDS011;35892;48.798;9.698;2022-11-21T10:49:41;2.30;;;0.80;;
45534;SDS011;35892;48.798;9.698;2022-11-21T10:52:12;1.83;;;0.82;;
45534;SDS011;35892;48.798;9.698;2022-11-21T10:57:35;3.55;;;1.10;;
45534;SDS011;35892;48.798;9.698;2022-11-21T11:02:40;3.75;;;0.90;;
45534;SDS011;35892;48.798;9.698;2022-11-21T11:07:41;5.35;;;1.05;;
45534;SDS011;35892;48.798;9.698;2022-11-21T11:10:26;3.10;;;0.90;;
45534;SDS011;35892;48.798;9.698;2022-11-21T11:12:55;3.88;;;0.80;;
45534;SDS011;35892;48.798;9.698;2022-11-21T11:16:22;3.85;;;0.88;;
45534;SDS011;35892;48.798;9.698;2022-11-21T11:21:23;2.97;;;0.88;;
45534;SDS011;35892;48.798;9.698;2022-11-21T11:24:04;4.32;;;0.90;;
45534;SDS011;35892;48.798;9.698;2022-11-21T11:26:48;5.50;;;1.08;;
45534;SDS011;35892;48.798;9.698;2022-11-21T11:29:18;3.05;;;0.80;;
45534;SDS011;35892;48.798;9.698;2022-11-21T11:34:40;3.10;;;0.95;;
45534;SDS011;35892;48.798;9.698;2022-11-21T11:52:30;2.55;;;0.80;;
45534;SDS011;35892;48.798;9.698;2022-11-21T11:55:04;3.47;;;0.88;;
45534;SDS011;35892;48.798;9.698;2022-11-21T11:57:38;3.13;;;1.00;;
45534;SDS011;35892;48.798;9.698;2022-11-21T12:03:10;3.08;;;0.90;;
45534;SDS011;35892;48.798;9.698;2022-11-21T12:05:57;3.42;;;1.00;;
45534;SDS011;35892;48.798;9.698;2022-11-21T12:08:59;2.70;;;1.10;;
45534;SDS011;35892;48.798;9.698;2022-11-21T12:11:29;2.45;;;0.75;;
45534;SDS011;35892;48.798;9.698;2022-11-21T12:14:19;3.40;;;0.90;;
45534;SDS011;35892;48.798;9.698;2022-11-21T12:17:18;3.45;;;0.73;;
45534;SDS011;35892;48.798;9.698;2022-11-21T12:19:49;2.15;;;0.50;;
45534;SDS011;35892;48.798;9.698;2022-11-21T12:22:19;2.30;;;0.75;;
45534;SDS011;35892;48.798;9.698;2022-11-21T12:24:46;3.20;;;1.00;;
45534;SDS011;35892;48.798;9.698;2022-11-21T12:27:17;3.97;;;0.80;;
45534;SDS011;35892;48.798;9.698;2022-11-21T12:46:38;3.03;;;0.90;;
45534;SDS011;35892;48.798;9.698;2022-11-21T12:55:23;4.18;;;1.05;;
45534;SDS011;35892;48.798;9.698;2022-11-21T13:03:39;3.53;;;1.23;;
45534;SDS011;35892;48.798;9.698;2022-11-21T13:06:22;4.35;;;1.48;;
45534;SDS011;35892;48.798;9.698;2022-11-21T13:08:52;4.57;;;1.20;;
45534;SDS011;35892;48.798;9.698;2022-11-21T13:17:10;4.18;;;1.65;;
45534;SDS011;35892;48.798;9.698;2022-11-21T13:22:59;3.00;;;0.77;;
45534;SDS011;35892;48.798;9.698;2022-11-21T13:25:34;3.35;;;0.93;;
45534;SDS011;35892;48.798;9.698;2022-11-21T13:30:45;3.15;;;1.08;;
45534;SDS011;35892;48.798;9.698;2022-11-21T13:33:50;3.20;;;1.17;;
45534;SDS011;35892;48.798;9.698;2022-11-21T13:46:58;2.85;;;1.13;;
45534;SDS011;35892;48.798;9.698;2022-11-21T13:52:36;2.75;;;1.20;;
45534;SDS011;35892;48.798;9.698;2022-11-21T13:58:34;3.40;;;1.20;;
45534;SDS011;35892;48.798;9.698;2022-11-21T14:06:41;5.18;;;1.00;;
45534;SDS011;35892;48.798;9.698;2022-11-21T14:09:18;4.32;;;0.88;;
45534;SDS011;35892;48.798;9.698;2022-11-21T14:12:00;4.22;;;1.85;;
45534;SDS011;35892;48.798;9.698;2022-11-21T14:14:37;2.03;;;1.10;;
45534;SDS011;35892;48.798;9.698;2022-11-21T14:23:02;4.45;;;1.77;;
45534;SDS011;35892;48.798;9.698;2022-11-21T14:28:08;5.38;;;1.80;;
45534;SDS011;35892;48.798;9.698;2022-11-21T14:30:41;3.88;;;2.00;;
45534;SDS011;35892;48.798;9.698;2022-11-21T14:33:29;3.63;;;1.55;;
45534;SDS011;35892;48.798;9.698;2022-11-21T14:38:44;2.28;;;0.85;;
45534;SDS011;35892;48.798;9.698;2022-11-21T14:41:35;3.45;;;0.95;;
45534;SDS011;35892;48.798;9.698;2022-11-21T14:44:04;3.70;;;1.10;;
45534;SDS011;35892;48.798;9.698;2022-11-21T14:46:40;3.00;;;1.42;;
45534;SDS011;35892;48.798;9.698;2022-11-21T14:51:38;5.30;;;1.52;;
45534;SDS011;35892;48.798;9.698;2022-11-21T14:54:15;2.87;;;1.30;;
45534;SDS011;35892;48.798;9.698;2022-11-21T14:56:45;7.75;;;3.10;;
45534;SDS011;35892;48.798;9.698;2022-11-21T14:59:24;6.82;;;3.00;;
45534;SDS011;35892;48.798;9.698;2022-11-21T15:02:06;5.80;;;3.70;;
45534;SDS011;35892;48.798;9.698;2022-11-21T15:04:42;7.07;;;3.17;;
45534;SDS011;35892;48.798;9.698;2022-11-21T15:10:12;5.30;;;1.80;;
45534;SDS011;35892;48.798;9.698;2022-11-21T15:17:57;6.82;;;5.07;;
45534;SDS011;35892;48.798;9.698;2022-11-21T15:20:52;35.92;;;28.08;;
45534;SDS011;35892;48.798;9.698;2022-11-21T15:23:31;10.73;;;8.07;;
45534;SDS011;35892;48.798;9.698;2022-11-21T15:26:02;18.75;;;14.43;;
45534;SDS011;35892;48.798;9.698;2022-11-21T15:28:32;14.25;;;12.57;;
45534;SDS011;35892;48.798;9.698;2022-11-21T15:33:53;69.97;;;47.65;;
45534;SDS011;35892;48.798;9.698;2022-11-21T15:36:40;42.65;;;38.03;;
45534;SDS011;35892;48.798;9.698;2022-11-21T15:39:18;9.75;;;8.43;;
45534;SDS011;35892;48.798;9.698;2022-11-21T15:41:47;6.35;;;2.50;;
45534;SDS011;35892;48.798;9.698;2022-11-21T15:44:20;5.13;;;2.13;;
45534;SDS011;35892;48.798;9.698;2022-11-21T15:49:20;10.02;;;5.97;;
45534;SDS011;35892;48.798;9.698;2022-11-21T15:52:07;6.85;;;4.03;;
45534;SDS011;35892;48.798;9.698;2022-11-21T15:54:39;6.20;;;2.58;;
45534;SDS011;35892;48.798;9.698;2022-11-21T15:57:08;3.88;;;1.90;;
45534;SDS011;35892;48.798;9.698;2022-11-21T15:59:35;6.28;;;1.92;;
45534;SDS011;35892;48.798;9.698;2022-11-21T16:02:01;7.53;;;2.25;;
45534;SDS011;35892;48.798;9.698;2022-11-21T16:04:28;3.45;;;1.23;;
45534;SDS011;35892;48.798;9.698;2022-11-21T16:06:55;7.07;;;2.13;;
45534;SDS011;35892;48.798;9.698;2022-11-21T16:09:22;6.18;;;1.80;;
45534;SDS011;35892;48.798;9.698;2022-11-21T16:11:51;4.45;;;1.58;;
45534;SDS011;35892;48.798;9.698;2022-11-21T16:14:20;2.90;;;1.40;;
45534;SDS011;35892;48.798;9.698;2022-11-21T16:16:46;5.85;;;1.60;;
45534;SDS011;35892;48.798;9.698;2022-11-21T16:19:13;5.78;;;1.77;;
45534;SDS011;35892;48.798;9.698;2022-11-21T16:21:43;6.53;;;1.63;;
45534;SDS011;35892;48.798;9.698;2022-11-21T16:24:11;6.65;;;1.60;;
45534;SDS011;35892;48.798;9.698;2022-11-21T16:26:38;4.32;;;1.45;;
45534;SDS011;35892;48.798;9.698;2022-11-21T16:29:08;4.15;;;1.92;;
45534;SDS011;35892;48.798;9.698;2022-11-21T16:31:38;4.43;;;1.77;;
45534;SDS011;35892;48.798;9.698;2022-11-21T16:34:07;6.27;;;1.53;;
45534;SDS011;35892;48.798;9.698;2022-11-21T16:36:36;3.78;;;2.08;;
45534;SDS011;35892;48.798;9.698;2022-11-21T16:39:03;7.40;;;3.75;;
45534;SDS011;35892;48.798;9.698;2022-11-21T16:41:37;8.38;;;5.10;;
45534;SDS011;35892;48.798;9.698;2022-11-21T16:44:10;12.85;;;5.72;;
45534;SDS011;35892;48.798;9.698;2022-11-21T16:46:43;12.30;;;6.57;;
45534;SDS011;35892;48.798;9.698;2022-11-21T16:49:13;17.30;;;10.35;;
45534;SDS011;35892;48.798;9.698;2022-11-21T16:51:40;7.55;;;4.50;;
45534;SDS011;35892;48.798;9.698;2022-11-21T16:54:07;5.78;;;2.92;;
45534;SDS011;35892;48.798;9.698;2022-11-21T16:56:34;22.80;;;11.75;;
45534;SDS011;35892;48.798;9.698;2022-11-21T16:59:04;20.25;;;12.93;;
45534;SDS011;35892;48.798;9.698;2022-11-21T17:01:30;12.27;;;5.38;;
45534;SDS011;35892;48.798;9.698;2022-11-21T17:03:58;15.55;;;9.57;;
45534;SDS011;35892;48.798;9.698;2022-11-21T17:06:25;14.70;;;9.88;;
45534;SDS011;35892;48.798;9.698;2022-11-21T17:08:54;7.72;;;2.70;;
45534;SDS011;35892;48.798;9.698;2022-11-21T17:11:24;5.75;;;2.47;;
45534;SDS011;35892;48.798;9.698;2022-11-21T17:13:54;4.00;;;2.17;;
45534;SDS011;35892;48.798;9.698;2022-11-21T17:16:24;6.13;;;2.50;;
45534;SDS011;35892;48.798;9.698;2022-11-21T17:18:52;8.35;;;3.00;;
45534;SDS011;35892;48.798;9.698;2022-11-21T17:21:22;6.13;;;3.10;;
45534;SDS011;35892;48.798;9.698;2022-11-21T17:23:50;6.47;;;3.15;;
45534;SDS011;35892;48.798;9.698;2022-11-21T17:26:23;5.13;;;3.03;;
45534;SDS011;35892;48.798;9.698;2022-11-21T17:28:51;7.80;;;3.55;;
45534;SDS011;35892;48.798;9.698;2022-11-21T17:31:19;5.30;;;3.22;;
45534;SDS011;35892;48.798;9.698;2022-11-21T17:33:47;4.85;;;3.10;;
45534;SDS011;35892;48.798;9.698;2022-11-21T17:36:26;6.80;;;3.90;;
45534;SDS011;35892;48.798;9.698;2022-11-21T17:38:55;9.82;;;3.25;;
45534;SDS011;35892;48.798;9.698;2022-11-21T17:41:22;9.43;;;3.30;;
45534;SDS011;35892;48.798;9.698;2022-11-21T17:43:54;8.27;;;3.15;;
45534;SDS011;35892;48.798;9.698;2022-11-21T17:46:24;7.55;;;3.70;;
45534;SDS011;35892;48.798;9.698;2022-11-21T17:48:51;6.93;;;3.20;;
45534;SDS011;35892;48.798;9.698;2022-11-21T17:51:24;6.90;;;3.53;;
45534;SDS011;35892;48.798;9.698;2022-11-21T17:53:55;8.82;;;4.15;;
45534;SDS011;35892;48.798;9.698;2022-11-21T17:56:23;9.50;;;3.35;;
45534;SDS011;35892;48.798;9.698;2022-11-21T17:58:51;5.68;;;3.10;;
45534;SDS011;35892;48.798;9.698;2022-11-21T18:01:19;4.18;;;2.65;;
45534;SDS011;35892;48.798;9.698;2022-11-21T18:06:23;6.43;;;3.40;;